This is the latest recevied weather packets stored in our database for station/object VK4CWL-13. If no packets are shown the sender has not sent any weather packets the latest 1 day(s).
| Time | Temp. | Humidity | Pressure | Rain* | Wind** | Luminosity | Snow |
|---|---|---|---|---|---|---|---|
| 1778030327 | 26.11° C | 57% | 1016.5 hPa | 0 mm | - | - | - |
| 1778029630 | 26.11° C | 58% | 1016.8 hPa | 0 mm | - | - | - |
| 1778029328 | 26.11° C | 58% | 1017 hPa | 0 mm | - | - | - |
| 1778029026 | 25.56° C | 59% | 1017 hPa | 0 mm | - | - | - |
| 1778028724 | 25.56° C | 59% | 1017.2 hPa | 0 mm | - | - | - |
| 1778027957 | 25.56° C | 60% | 1017.4 hPa | 0 mm | - | - | - |
| 1778027654 | 25° C | 61% | 1017.5 hPa | 0 mm | - | - | - |
| 1778027353 | 25° C | 61% | 1017.6 hPa | 0 mm | - | - | - |
| 1778027152 | 25° C | 61% | 1017.6 hPa | 0 mm | - | - | - |
| 1778026244 | 24.44° C | 64% | 1017.8 hPa | 0 mm | - | - | - |
| 1778025639 | 23.89° C | 65% | 1017.9 hPa | 0 mm | - | - | - |
| 1778024429 | 23.33° C | 67% | 1018.1 hPa | 0 mm | - | - | - |
| 1778024127 | 23.33° C | 67% | 1018.1 hPa | 0 mm | - | - | - |
| 1778023825 | 23.33° C | 68% | 1018.1 hPa | 0 mm | - | - | - |
| 1778022616 | 22.22° C | 71% | 1018.3 hPa | 0 mm | - | - | - |
| 1778022314 | 22.22° C | 71% | 1018.3 hPa | 0 mm | - | - | - |
| 1778020500 | 21.11° C | 78% | 1018.2 hPa | 0 mm | - | - | - |
| 1778017477 | 18.89° C | 90% | 1018.5 hPa | 0 mm | - | - | - |
| 1778016268 | 17.22° C | 94% | 1018.5 hPa | 0 mm | - | - | - |
| 1778014756 | 16.67° C | 94% | 1018.3 hPa | 0 mm | - | - | - |
| 1778014454 | 16.67° C | 94% | 1018.4 hPa | 0 mm | - | - | - |
| 1778014152 | 16.67° C | 94% | 1018.3 hPa | 0 mm | - | - | - |
* Rain since midnight (hover to see other rain measurements)
** Current wind speed in m/s (hover to see current wind gust speed)